createdAt,value
2019-01-24T00:00:39.177Z,49.67
2019-01-24T00:03:07.645Z,51.40
2019-01-24T00:05:36.087Z,50.47
2019-01-24T00:08:04.665Z,53.27
2019-01-24T00:10:33.106Z,47.10
2019-01-24T00:13:01.911Z,46.87
2019-01-24T00:15:30.378Z,51.13
2019-01-24T00:17:58.838Z,50.63
2019-01-24T00:20:27.650Z,46.30
2019-01-24T00:22:56.142Z,47.00
2019-01-24T00:25:24.686Z,52.00
2019-01-24T00:27:53.145Z,57.37
2019-01-24T00:30:21.773Z,53.73
2019-01-24T00:32:50.234Z,49.63
2019-01-24T00:35:18.717Z,53.00
2019-01-24T00:37:47.175Z,54.23
2019-01-24T00:40:18.556Z,51.87
2019-01-24T00:42:47.737Z,55.00
2019-01-24T00:45:16.460Z,49.67
2019-01-24T00:47:45.162Z,52.87
2019-01-24T00:50:15.349Z,49.30
2019-01-24T00:52:44.046Z,49.10
2019-01-24T00:55:14.621Z,50.63
2019-01-24T00:57:43.666Z,52.13
2019-01-24T01:00:16.027Z,52.00
2019-01-24T01:02:45.098Z,52.53
2019-01-24T01:05:14.014Z,52.97
2019-01-24T01:07:42.479Z,52.97
2019-01-24T01:10:12.202Z,52.07
2019-01-24T01:12:40.671Z,53.23
2019-01-24T01:15:12.359Z,52.57
2019-01-24T01:17:40.800Z,50.57
2019-01-24T01:20:15.145Z,53.67
2019-01-24T01:22:43.626Z,55.80
2019-01-24T01:25:13.243Z,54.83
2019-01-24T01:27:42.055Z,51.53
2019-01-24T01:30:16.799Z,52.73
2019-01-24T01:32:45.454Z,49.13
2019-01-24T01:35:14.454Z,51.33
2019-01-24T01:37:43.270Z,54.33
2019-01-24T01:40:15.025Z,51.03
2019-01-24T01:42:43.921Z,57.47
2019-01-24T01:45:19.954Z,55.73
2019-01-24T01:47:48.987Z,56.13
2019-01-24T01:50:20.190Z,56.07
2019-01-24T01:52:48.989Z,55.33
2019-01-24T01:55:18.405Z,61.43
2019-01-24T01:57:46.922Z,51.63
2019-01-24T02:00:23.735Z,56.40
2019-01-24T02:02:52.527Z,53.60
2019-01-24T02:05:21.195Z,55.00
2019-01-24T02:07:50.617Z,51.37
2019-01-24T02:10:21.511Z,57.67
2019-01-24T02:12:50.526Z,53.00
2019-01-24T02:15:20.421Z,50.77
2019-01-24T02:17:49.459Z,54.70
2019-01-24T02:20:23.091Z,51.47
2019-01-24T02:22:52.010Z,54.13
2019-01-24T02:25:20.664Z,51.20
2019-01-24T02:27:49.125Z,50.97
2019-01-24T02:30:22.926Z,54.03
2019-01-24T02:32:51.939Z,46.67
2019-01-24T02:35:20.404Z,48.50
2019-01-24T02:37:48.874Z,53.23
2019-01-24T02:40:17.386Z,48.33
2019-01-24T02:42:45.879Z,50.90
2019-01-24T02:45:17.396Z,53.83
2019-01-24T02:47:45.926Z,49.83
2019-01-24T02:50:17.297Z,45.67
2019-01-24T02:52:45.859Z,48.80
2019-01-24T02:55:15.634Z,50.47
2019-01-24T02:57:44.991Z,45.57
2019-01-24T03:00:18.567Z,51.27
2019-01-24T03:02:47.018Z,55.07
2019-01-24T03:05:18.030Z,51.10
2019-01-24T03:07:46.484Z,55.47
2019-01-24T03:10:15.916Z,51.77
2019-01-24T03:12:44.580Z,50.07
2019-01-24T03:15:20.806Z,56.37
2019-01-24T03:17:49.836Z,51.77
2019-01-24T03:20:18.843Z,50.63
2019-01-24T03:22:47.450Z,55.80
2019-01-24T03:25:17.950Z,54.07
2019-01-24T03:27:46.810Z,48.40
2019-01-24T03:30:17.882Z,46.77
2019-01-24T03:32:46.518Z,48.40
2019-01-24T03:35:17.949Z,51.03
2019-01-24T03:37:46.517Z,53.97
2019-01-24T03:40:16.199Z,58.23
2019-01-24T03:42:44.795Z,51.33
2019-01-24T03:45:15.828Z,53.40
2019-01-24T03:47:44.313Z,52.77
2019-01-24T03:50:20.289Z,54.07
2019-01-24T03:52:49.489Z,53.30
2019-01-24T03:55:19.705Z,56.37
2019-01-24T03:57:48.458Z,52.90
2019-01-24T04:00:19.861Z,50.87
2019-01-24T04:02:48.484Z,51.93
2019-01-24T04:05:18.210Z,52.13
2019-01-24T04:07:46.675Z,54.80
2019-01-24T04:10:17.760Z,52.33
2019-01-24T04:12:46.538Z,51.67
2019-01-24T04:15:20.711Z,55.87
2019-01-24T04:17:49.214Z,52.70
2019-01-24T04:20:17.953Z,51.20
2019-01-24T04:22:46.451Z,49.97
2019-01-24T04:25:15.061Z,53.20
2019-01-24T04:27:44.049Z,73.50
2019-01-24T04:30:15.438Z,52.67
2019-01-24T04:32:44.093Z,50.53
2019-01-24T04:35:19.665Z,52.27
2019-01-24T04:37:44.083Z,49.87
2019-01-24T04:40:14.598Z,52.83
2019-01-24T04:42:43.512Z,53.37
2019-01-24T04:45:14.319Z,46.97
2019-01-24T04:47:43.044Z,46.33
2019-01-24T04:50:14.129Z,51.33
2019-01-24T04:52:42.842Z,47.27
2019-01-24T04:55:13.671Z,48.73
2019-01-24T04:57:42.125Z,48.80
2019-01-24T05:00:25.434Z,52.63
2019-01-24T05:02:53.893Z,55.70
2019-01-24T05:05:27.632Z,55.57
2019-01-24T05:07:52.547Z,49.53
2019-01-24T05:10:21.094Z,53.77
2019-01-24T05:12:49.552Z,53.87
2019-01-24T05:15:18.248Z,51.57
2019-01-24T05:17:46.784Z,53.07
2019-01-24T05:20:15.631Z,45.37
2019-01-24T05:22:44.116Z,50.23
2019-01-24T05:25:17.210Z,54.10
2019-01-24T05:27:45.739Z,55.47
2019-01-24T05:30:17.302Z,53.70
2019-01-24T05:32:45.835Z,46.50
2019-01-24T05:35:14.377Z,48.47
2019-01-24T05:37:42.906Z,51.30
2019-01-24T05:40:11.632Z,47.47
2019-01-24T05:42:40.098Z,53.13
2019-01-24T05:45:13.819Z,48.47
2019-01-24T05:47:42.272Z,49.67
2019-01-24T05:50:13.261Z,53.10
2019-01-24T05:52:41.829Z,55.20
2019-01-24T05:55:12.146Z,50.20
2019-01-24T05:57:40.634Z,49.73
2019-01-24T06:00:19.397Z,50.87
2019-01-24T06:02:47.851Z,51.27
2019-01-24T06:05:17.254Z,48.50
2019-01-24T06:07:45.738Z,51.30
2019-01-24T06:10:15.827Z,44.70
2019-01-24T06:12:44.565Z,53.50
2019-01-24T06:15:17.490Z,51.73
2019-01-24T06:17:45.968Z,48.63
2019-01-24T06:20:14.944Z,47.27
2019-01-24T06:22:43.410Z,49.63
2019-01-24T06:25:13.867Z,48.63
2019-01-24T06:27:43.099Z,50.57
2019-01-24T06:30:17.381Z,49.70
2019-01-24T06:32:46.002Z,48.03
2019-01-24T06:35:14.466Z,49.07
2019-01-24T06:37:43.574Z,53.70
2019-01-24T06:40:16.341Z,54.57
2019-01-24T06:42:45.209Z,50.77
2019-01-24T06:45:18.916Z,56.03
2019-01-24T06:47:47.366Z,53.97
2019-01-24T06:50:17.624Z,50.70
2019-01-24T06:52:46.122Z,49.20
2019-01-24T06:55:23.257Z,60.20
2019-01-24T06:57:52.022Z,54.07
2019-01-24T07:00:21.235Z,49.80
2019-01-24T07:02:49.723Z,56.30
2019-01-24T07:05:18.573Z,51.60
2019-01-24T07:07:47.260Z,46.33
2019-01-24T07:10:23.573Z,47.33
2019-01-24T07:12:52.166Z,51.50
2019-01-24T07:15:22.494Z,45.90
2019-01-24T07:17:51.742Z,48.07
2019-01-24T07:20:21.778Z,47.00
2019-01-24T07:22:50.293Z,53.33
2019-01-24T07:25:21.601Z,48.40
2019-01-24T07:27:50.342Z,49.23
2019-01-24T07:30:20.294Z,48.23
2019-01-24T07:32:49.005Z,45.37
2019-01-24T07:35:18.815Z,49.00
2019-01-24T07:37:47.534Z,54.80
2019-01-24T07:40:20.131Z,49.47
2019-01-24T07:42:49.734Z,51.27
2019-01-24T07:45:30.317Z,46.37
2019-01-24T07:47:58.801Z,56.73
2019-01-24T07:50:27.268Z,55.03
2019-01-24T07:52:55.938Z,49.57
2019-01-24T07:55:24.396Z,51.53
2019-01-24T07:57:52.868Z,53.40
2019-01-24T08:00:24.894Z,49.20
2019-01-24T08:02:53.798Z,48.00
2019-01-24T08:05:23.082Z,56.50
2019-01-24T08:07:51.552Z,49.80
2019-01-24T08:10:22.064Z,45.63
2019-01-24T08:12:50.855Z,48.47
2019-01-24T08:15:24.037Z,51.90
2019-01-24T08:17:52.669Z,49.90
2019-01-24T08:20:26.274Z,50.80
2019-01-24T08:22:54.739Z,49.93
2019-01-24T08:25:23.656Z,48.20
2019-01-24T08:27:52.482Z,55.50
2019-01-24T08:30:26.274Z,54.70
2019-01-24T08:32:55.250Z,46.73
2019-01-24T08:35:23.767Z,44.93
2019-01-24T08:37:52.740Z,54.80
2019-01-24T08:40:24.943Z,50.43
2019-01-24T08:42:53.400Z,51.90
2019-01-24T08:45:22.182Z,51.20
2019-01-24T08:47:50.650Z,52.57
2019-01-24T08:50:21.398Z,47.57
2019-01-24T08:52:49.829Z,47.57
2019-01-24T08:55:26.998Z,47.83
2019-01-24T08:57:55.442Z,52.40
2019-01-24T09:00:23.948Z,54.40
2019-01-24T09:02:53.356Z,44.47
2019-01-24T09:05:22.942Z,46.20
2019-01-24T09:07:51.398Z,56.20
2019-01-24T09:10:28.674Z,41.40
2019-01-24T09:12:57.120Z,44.40
2019-01-24T09:15:26.975Z,43.67
2019-01-24T09:17:55.415Z,49.40
2019-01-24T09:20:23.861Z,53.97
2019-01-24T09:22:55.325Z,46.87
2019-01-24T09:25:22.745Z,54.07
2019-01-24T09:27:51.223Z,46.20
2019-01-24T09:30:25.294Z,46.73
2019-01-24T09:32:53.757Z,46.17
2019-01-24T09:35:22.559Z,46.10
2019-01-24T09:37:51.015Z,53.03
2019-01-24T09:40:23.262Z,50.53
2019-01-24T09:42:51.713Z,49.80
2019-01-24T09:45:28.271Z,53.33
2019-01-24T09:47:58.570Z,55.70
2019-01-24T09:50:28.487Z,51.83
2019-01-24T09:52:56.935Z,54.67
2019-01-24T09:55:25.407Z,57.20
2019-01-24T09:57:53.854Z,48.67
2019-01-24T10:00:30.934Z,61.53
2019-01-24T10:02:59.839Z,52.30
2019-01-24T10:05:28.350Z,52.07
2019-01-24T10:07:56.837Z,49.23
2019-01-24T10:10:27.147Z,54.90
2019-01-24T10:12:56.574Z,55.00
2019-01-24T10:15:25.334Z,51.57
2019-01-24T10:17:53.801Z,57.90
2019-01-24T10:20:25.450Z,54.23
2019-01-24T10:22:54.110Z,55.17
2019-01-24T10:25:28.349Z,52.30
2019-01-24T10:27:57.189Z,57.47
2019-01-24T10:30:27.223Z,57.83
2019-01-24T10:32:56.462Z,55.40
2019-01-24T10:35:25.587Z,56.53
2019-01-24T10:37:54.366Z,58.50
2019-01-24T10:40:27.098Z,54.80
2019-01-24T10:42:56.392Z,50.63
2019-01-24T10:45:24.877Z,57.37
2019-01-24T10:47:54.363Z,54.83
2019-01-24T10:50:27.686Z,50.30
2019-01-24T10:52:56.311Z,56.47
2019-01-24T10:55:26.532Z,56.67
2019-01-24T10:57:57.332Z,52.47
2019-01-24T11:00:32.564Z,55.10
2019-01-24T11:03:02.707Z,51.27
2019-01-24T11:05:31.162Z,50.40
2019-01-24T11:07:59.635Z,53.70
2019-01-24T11:10:30.733Z,53.50
2019-01-24T11:12:59.235Z,53.00
2019-01-24T11:15:28.368Z,58.53
2019-01-24T11:17:56.866Z,51.97
2019-01-24T11:20:25.323Z,51.20
2019-01-24T11:22:53.786Z,58.33
2019-01-24T11:25:26.677Z,55.07
2019-01-24T11:27:55.415Z,55.47
2019-01-24T11:30:26.480Z,52.70
2019-01-24T11:32:55.890Z,65.37
2019-01-24T11:35:27.308Z,55.90
2019-01-24T11:37:56.266Z,55.90
2019-01-24T11:40:24.733Z,58.10
2019-01-24T11:42:53.399Z,55.20
2019-01-24T11:45:24.810Z,57.33
2019-01-24T11:47:53.278Z,58.00
2019-01-24T11:50:21.929Z,58.33
2019-01-24T11:52:50.375Z,54.97
2019-01-24T11:55:21.413Z,58.60
2019-01-24T11:57:49.903Z,51.43
2019-01-24T12:00:28.813Z,56.00
2019-01-24T12:02:57.253Z,52.67
2019-01-24T12:05:25.993Z,48.53
2019-01-24T12:07:54.450Z,52.00
2019-01-24T12:10:25.933Z,45.67
2019-01-24T12:12:54.414Z,50.63
2019-01-24T12:15:25.582Z,52.70
2019-01-24T12:17:54.082Z,52.63
2019-01-24T12:20:26.190Z,51.50
2019-01-24T12:22:55.832Z,48.20
2019-01-24T12:25:24.454Z,53.67
2019-01-24T12:27:53.410Z,51.27
2019-01-24T12:30:31.063Z,55.47
2019-01-24T12:33:00.487Z,46.37
2019-01-24T12:35:29.569Z,47.07
2019-01-24T12:37:58.079Z,44.77
2019-01-24T12:40:26.549Z,45.03
2019-01-24T12:42:55.448Z,48.17
2019-01-24T12:45:31.723Z,43.43
2019-01-24T12:48:00.469Z,47.77
2019-01-24T12:50:28.922Z,48.33
2019-01-24T12:52:57.746Z,47.27
2019-01-24T12:55:26.358Z,46.33
2019-01-24T12:57:54.911Z,45.03
2019-01-24T13:00:29.021Z,48.33
2019-01-24T13:02:57.567Z,45.80
2019-01-24T13:05:26.041Z,45.37
2019-01-24T13:07:54.871Z,42.67
2019-01-24T13:10:26.398Z,45.93
2019-01-24T13:12:55.997Z,42.00
2019-01-24T13:15:30.062Z,47.00
2019-01-24T13:17:58.546Z,43.93
2019-01-24T13:20:27.030Z,39.47
2019-01-24T13:22:55.874Z,43.10
2019-01-24T13:25:29.463Z,40.70
2019-01-24T13:27:57.938Z,38.80
2019-01-24T13:30:31.982Z,38.77
2019-01-24T13:33:00.981Z,39.77
2019-01-24T13:35:29.543Z,44.33
2019-01-24T13:37:58.239Z,46.10
2019-01-24T13:40:29.041Z,43.43
2019-01-24T13:42:58.342Z,42.90
2019-01-24T13:45:29.398Z,43.37
2019-01-24T13:47:57.868Z,39.83
2019-01-24T13:50:26.375Z,45.23
2019-01-24T13:52:54.922Z,39.03
2019-01-24T13:55:23.482Z,42.33
2019-01-24T13:57:51.955Z,45.83
2019-01-24T14:00:26.229Z,42.53
2019-01-24T14:02:57.889Z,46.20
2019-01-24T14:05:26.345Z,42.00
2019-01-24T14:07:54.778Z,44.63
2019-01-24T14:10:23.274Z,43.37
2019-01-24T14:12:51.721Z,47.67
2019-01-24T14:15:20.564Z,49.40
2019-01-24T14:17:49.030Z,55.97
2019-01-24T14:20:21.766Z,44.10
2019-01-24T14:22:50.823Z,45.10
2019-01-24T14:25:20.741Z,46.13
2019-01-24T14:27:49.619Z,47.17
2019-01-24T14:30:20.887Z,48.87
2019-01-24T14:32:49.397Z,48.30
2019-01-24T14:35:18.943Z,46.27
2019-01-24T14:37:47.962Z,46.37
2019-01-24T14:40:17.282Z,45.67
2019-01-24T14:42:46.000Z,44.07
2019-01-24T14:45:20.296Z,47.00
2019-01-24T14:47:48.778Z,51.53
2019-01-24T14:50:23.458Z,50.80
2019-01-24T14:52:51.906Z,47.33
2019-01-24T14:55:20.383Z,52.27
2019-01-24T14:57:49.220Z,51.20
2019-01-24T15:00:29.222Z,54.43
2019-01-24T15:02:57.682Z,51.30
2019-01-24T15:05:26.593Z,49.00
2019-01-24T15:07:55.615Z,50.70
2019-01-24T15:10:24.542Z,52.30
2019-01-24T15:12:53.023Z,54.83
2019-01-24T15:15:23.361Z,54.30
2019-01-24T15:17:51.870Z,46.60
2019-01-24T15:20:21.586Z,55.53
2019-01-24T15:22:50.058Z,52.37
2019-01-24T15:25:20.450Z,46.90
2019-01-24T15:27:49.217Z,47.50
2019-01-24T15:30:29.023Z,50.37
2019-01-24T15:32:57.850Z,49.60
2019-01-24T15:35:26.581Z,49.37
2019-01-24T15:37:55.253Z,46.30
2019-01-24T15:40:34.734Z,50.63
2019-01-24T15:43:03.322Z,49.20
2019-01-24T15:45:32.018Z,50.17
2019-01-24T15:48:00.750Z,49.87
2019-01-24T15:50:29.490Z,52.70
2019-01-24T15:52:58.124Z,54.10
2019-01-24T15:55:26.602Z,52.60
2019-01-24T15:57:55.085Z,49.43
2019-01-24T16:00:29.343Z,49.67
2019-01-24T16:02:58.626Z,55.53
2019-01-24T16:05:27.354Z,46.87
2019-01-24T16:08:01.584Z,47.77
2019-01-24T16:10:26.182Z,52.17
2019-01-24T16:12:54.786Z,61.97
2019-01-24T16:15:26.149Z,62.90
2019-01-24T16:17:54.681Z,68.00
2019-01-24T16:20:25.606Z,78.87
2019-01-24T16:22:54.063Z,59.57
2019-01-24T16:25:28.230Z,59.77
2019-01-24T16:27:56.771Z,55.23
2019-01-24T16:30:30.846Z,63.00
2019-01-24T16:33:00.159Z,57.00
2019-01-24T16:35:29.061Z,55.97
2019-01-24T16:37:57.599Z,48.53
2019-01-24T16:40:28.362Z,51.13
2019-01-24T16:42:56.827Z,47.87
2019-01-24T16:45:30.105Z,57.80
2019-01-24T16:47:58.793Z,54.57
2019-01-24T16:50:28.337Z,51.07
2019-01-24T16:52:56.884Z,50.60
2019-01-24T16:55:25.363Z,60.83
2019-01-24T16:57:54.269Z,61.90
2019-01-24T17:00:25.553Z,60.57
2019-01-24T17:02:54.080Z,58.47
2019-01-24T17:05:22.958Z,53.00
2019-01-24T17:07:51.423Z,63.77
2019-01-24T17:10:25.283Z,64.37
2019-01-24T17:12:53.753Z,61.50
2019-01-24T17:15:22.620Z,52.37
2019-01-24T17:17:51.114Z,59.63
2019-01-24T17:20:25.238Z,57.90
2019-01-24T17:22:53.994Z,56.63
2019-01-24T17:25:24.180Z,58.60
2019-01-24T17:27:52.630Z,61.13
2019-01-24T17:30:23.839Z,53.23
2019-01-24T17:32:52.747Z,52.77
2019-01-24T17:35:21.694Z,60.80
2019-01-24T17:37:50.242Z,60.57
2019-01-24T17:40:27.287Z,51.80
2019-01-24T17:42:55.966Z,62.87
2019-01-24T17:45:24.569Z,50.50
2019-01-24T17:47:53.064Z,52.60
2019-01-24T17:50:21.763Z,50.43
2019-01-24T17:52:50.690Z,52.03
2019-01-24T17:55:34.218Z,56.50
2019-01-24T17:58:02.957Z,51.07
2019-01-24T18:00:33.082Z,54.57
2019-01-24T18:03:01.574Z,51.47
2019-01-24T18:05:30.025Z,52.50
2019-01-24T18:07:58.479Z,47.47
2019-01-24T18:10:28.802Z,54.00
2019-01-24T18:12:57.332Z,48.67
2019-01-24T18:15:28.618Z,48.07
2019-01-24T18:17:57.522Z,68.43
2019-01-24T18:20:28.785Z,66.37
2019-01-24T18:22:57.646Z,71.43
2019-01-24T18:25:26.230Z,76.67
2019-01-24T18:27:54.758Z,74.20
2019-01-24T18:30:25.909Z,69.67
2019-01-24T18:32:54.956Z,60.03
2019-01-24T18:35:23.785Z,57.20
2019-01-24T18:37:52.344Z,71.30
2019-01-24T18:40:26.228Z,68.07
2019-01-24T18:42:55.426Z,67.33
2019-01-24T18:45:27.509Z,78.63
2019-01-24T18:47:55.973Z,59.67
2019-01-24T18:50:24.763Z,71.10
2019-01-24T18:52:53.341Z,76.00
2019-01-24T18:55:21.809Z,68.70
2019-01-24T18:57:50.279Z,65.23
2019-01-24T19:00:23.115Z,56.00
2019-01-24T19:02:51.575Z,61.90
2019-01-24T19:05:20.334Z,56.43
2019-01-24T19:07:48.802Z,57.53
2019-01-24T19:10:17.558Z,65.70
2019-01-24T19:12:46.025Z,62.07
2019-01-24T19:15:22.634Z,65.47
2019-01-24T19:17:51.550Z,60.03
2019-01-24T19:20:20.398Z,63.13
2019-01-24T19:22:49.137Z,63.10
2019-01-24T19:25:20.326Z,95.73
2019-01-24T19:27:48.774Z,90.23
2019-01-24T19:30:28.819Z,90.13
2019-01-24T19:32:57.471Z,61.70
2019-01-24T19:35:25.982Z,75.63
2019-01-24T19:37:54.438Z,76.93
2019-01-24T19:40:31.258Z,74.50
2019-01-24T19:42:59.723Z,105.63
2019-01-24T19:45:28.802Z,182.17
2019-01-24T19:47:57.290Z,72.83
2019-01-24T19:50:28.294Z,57.57
2019-01-24T19:52:58.710Z,52.00
2019-01-24T19:55:29.550Z,56.63
2019-01-24T19:57:58.488Z,52.97
2019-01-24T20:00:32.198Z,54.00
2019-01-24T20:03:00.941Z,56.93
2019-01-24T20:05:29.861Z,51.37
2019-01-24T20:07:58.459Z,55.77
2019-01-24T20:10:28.746Z,63.63
2019-01-24T20:12:57.745Z,59.83
2019-01-24T20:15:31.032Z,49.13
2019-01-24T20:17:59.954Z,47.60
2019-01-24T20:20:29.075Z,38.53
2019-01-24T20:22:57.999Z,44.03
2019-01-24T20:25:31.082Z,42.90
2019-01-24T20:27:59.868Z,40.53
2019-01-24T20:30:31.220Z,42.80
2019-01-24T20:33:00.717Z,35.17
2019-01-24T20:35:34.829Z,31.87
2019-01-24T20:38:03.359Z,38.37
2019-01-24T20:40:31.852Z,37.67
2019-01-24T20:43:00.397Z,33.50
2019-01-24T20:45:29.520Z,32.90
2019-01-24T20:47:58.977Z,29.10
2019-01-24T20:50:27.454Z,33.33
2019-01-24T20:52:55.911Z,29.83
2019-01-24T20:55:24.378Z,34.07
2019-01-24T20:57:53.205Z,30.87
2019-01-24T21:00:34.067Z,32.07
2019-01-24T21:03:02.777Z,26.97
2019-01-24T21:05:31.626Z,28.37
2019-01-24T21:08:08.159Z,29.37
2019-01-24T21:10:37.010Z,27.53
2019-01-24T21:13:05.759Z,26.63
2019-01-24T21:15:34.198Z,26.90
2019-01-24T21:18:02.677Z,32.20
2019-01-24T21:20:34.231Z,26.87
2019-01-24T21:23:02.786Z,31.30
2019-01-24T21:25:31.304Z,28.57
2019-01-24T21:27:59.787Z,28.30
2019-01-24T21:30:31.391Z,32.00
2019-01-24T21:33:00.280Z,27.50
2019-01-24T21:35:28.774Z,25.27
2019-01-24T21:37:57.262Z,26.60
2019-01-24T21:40:26.054Z,27.13
2019-01-24T21:42:54.518Z,29.80
2019-01-24T21:45:25.754Z,28.33
2019-01-24T21:47:54.232Z,27.53
2019-01-24T21:50:25.215Z,29.73
2019-01-24T21:52:54.063Z,30.37
2019-01-24T21:55:23.193Z,29.57
2019-01-24T21:57:51.847Z,26.87
2019-01-24T22:00:25.165Z,32.10
2019-01-24T22:02:53.862Z,28.50
2019-01-24T22:05:23.191Z,30.87
2019-01-24T22:07:51.895Z,30.27
2019-01-24T22:10:33.066Z,30.87
2019-01-24T22:13:01.537Z,27.13
2019-01-24T22:15:31.026Z,32.53
2019-01-24T22:18:00.078Z,32.40
2019-01-24T22:20:28.696Z,28.80
2019-01-24T22:22:57.459Z,31.10
2019-01-24T22:25:34.355Z,28.20
2019-01-24T22:28:03.370Z,31.30
2019-01-24T22:30:41.637Z,32.73
2019-01-24T22:33:10.196Z,31.73
2019-01-24T22:35:38.654Z,33.83
2019-01-24T22:38:08.170Z,33.90
2019-01-24T22:40:39.018Z,37.43
2019-01-24T22:43:07.755Z,35.97
2019-01-24T22:45:36.559Z,36.93
2019-01-24T22:48:06.390Z,49.80
2019-01-24T22:50:34.856Z,35.67
2019-01-24T22:53:03.310Z,35.33
2019-01-24T22:55:31.769Z,36.63
2019-01-24T22:58:00.224Z,33.97
2019-01-24T23:00:53.058Z,31.17
2019-01-24T23:03:25.211Z,33.20
2019-01-24T23:05:54.087Z,31.97
2019-01-24T23:08:22.726Z,35.10
2019-01-24T23:10:51.262Z,35.83
2019-01-24T23:13:20.047Z,37.20
2019-01-24T23:15:48.514Z,32.13
2019-01-24T23:18:17.005Z,31.17
2019-01-24T23:20:45.740Z,36.90
2019-01-24T23:23:14.482Z,34.40
2019-01-24T23:25:42.939Z,34.23
2019-01-24T23:28:11.398Z,36.20
2019-01-24T23:30:39.948Z,35.17
2019-01-24T23:33:08.427Z,35.40
2019-01-24T23:35:36.878Z,41.30
2019-01-24T23:38:05.713Z,39.27
2019-01-24T23:40:34.188Z,36.93
2019-01-24T23:43:02.722Z,36.97
2019-01-24T23:45:31.193Z,39.50
2019-01-24T23:47:59.782Z,37.07
2019-01-24T23:50:28.310Z,35.73
2019-01-24T23:52:56.774Z,35.57
2019-01-24T23:55:25.630Z,38.23
2019-01-24T23:57:54.097Z,37.00
